Darlington, United Kingdom
Current Conditions -  °F | °C
As of 6:20 AM on Saturday 29 Nov 2014 (Local Time) from EGNV Reporting Station
Haze Haze  
Wind Chill: 46°   Ceiling: Unl
Heat Index: 48°   Visibility: 2.1mi
Dew Point: 46°   Wind: 5mph
Humidity: 93%   Direction: 200°SSW
Pressure: 29.85"   Gusts: NA
Location:  54.54°N, 1.56°W
Report Text: EGNV 290620Z 20004KT 3500 BR FEW007 SCT009 09/08 Q1011
Loading
Personal Weather Stations






























Interactive Weather Map New forecast layout! Learn more

10-Day Weather Forecast

Advertisements
Track Severe Weather on mobile